Time,TemperatureF,DewpointF,PressureIn,WindDirection,WindDirectionDegrees,WindSpeedMPH,WindSpeedGustMPH,Humidity,HourlyPrecipIn,Conditions,Clouds,dailyrainin,SoftwareType,DateUTC
2013-01-17 00:09:00,16.6,10.3,30.45,SSE,158,0.0,0.0,76,0.00,,,0.00,Wunderground v.1.15,2013-01-17 07:09:00,
2013-01-17 00:19:00,16.0,9.8,30.46,SSE,158,0.0,0.0,76,0.00,,,0.00,Wunderground v.1.15,2013-01-17 07:19:00,
2013-01-17 00:29:00,15.3,9.7,30.45,SSE,158,0.0,0.0,78,0.00,,,0.00,Wunderground v.1.15,2013-01-17 07:29:00,
2013-01-17 00:39:00,14.7,9.6,30.45,SSW,207,0.0,0.0,80,0.00,,,0.00,Wunderground v.1.15,2013-01-17 07:39:00,
2013-01-17 00:49:00,14.6,9.6,30.45,SSW,208,0.0,0.0,80,0.00,,,0.00,Wunderground v.1.15,2013-01-17 07:49:00,
2013-01-17 00:59:00,14.8,10.0,30.46,SSW,208,0.0,1.0,81,0.00,,,0.00,Wunderground v.1.15,2013-01-17 07:59:00,
2013-01-17 01:09:00,15.2,10.1,30.46,SSW,207,0.0,0.0,80,0.00,,,0.00,Wunderground v.1.15,2013-01-17 08:09:00,
2013-01-17 01:19:00,15.2,10.4,30.46,SSW,208,0.0,1.0,81,0.00,,,0.00,Wunderground v.1.15,2013-01-17 08:19:00,
2013-01-17 01:29:00,15.2,9.6,30.47,SSW,210,0.0,0.0,78,0.00,,,0.00,Wunderground v.1.15,2013-01-17 08:29:00,
2013-01-17 01:39:00,14.7,9.4,30.46,SSW,210,0.0,0.0,79,0.00,,,0.00,Wunderground v.1.15,2013-01-17 08:39:00,
2013-01-17 01:49:00,14.4,9.1,30.46,SSW,210,0.0,0.0,79,0.00,,,0.00,Wunderground v.1.15,2013-01-17 08:49:00,
2013-01-17 01:59:00,14.5,9.5,30.46,SSW,210,0.0,0.0,80,0.00,,,0.00,Wunderground v.1.15,2013-01-17 08:59:00,
2013-01-17 02:09:00,14.3,9.3,30.47,SSW,210,0.0,0.0,80,0.00,,,0.00,Wunderground v.1.15,2013-01-17 09:09:00,
2013-01-17 02:19:00,13.8,8.8,30.47,SSW,210,0.0,0.0,80,0.00,,,0.00,Wunderground v.1.15,2013-01-17 09:19:00,
2013-01-17 02:29:00,13.3,8.6,30.47,SSW,210,0.0,0.0,81,0.00,,,0.00,Wunderground v.1.15,2013-01-17 09:29:00,
2013-01-17 02:39:00,13.4,8.9,30.47,SSW,210,0.0,0.0,82,0.00,,,0.00,Wunderground v.1.15,2013-01-17 09:39:00,
2013-01-17 02:49:00,13.9,9.4,30.47,SSW,210,0.0,0.0,82,0.00,,,0.00,Wunderground v.1.15,2013-01-17 09:49:00,
2013-01-17 02:59:00,13.5,8.5,30.47,SSW,210,0.0,0.0,80,0.00,,,0.00,Wunderground v.1.15,2013-01-17 09:59:00,
2013-01-17 03:09:00,13.0,8.3,30.47,SSW,210,0.0,0.0,81,0.00,,,0.00,Wunderground v.1.15,2013-01-17 10:09:00,
2013-01-17 03:19:00,12.7,8.5,30.47,SSW,210,0.0,0.0,83,0.00,,,0.00,Wunderground v.1.15,2013-01-17 10:19:00,
2013-01-17 03:29:00,12.9,8.7,30.46,SSW,210,0.0,0.0,83,0.00,,,0.00,Wunderground v.1.15,2013-01-17 10:29:00,
2013-01-17 03:39:00,13.2,9.3,30.46,SSW,210,0.0,0.0,84,0.00,,,0.00,Wunderground v.1.15,2013-01-17 10:39:00,
2013-01-17 03:49:00,13.3,9.1,30.46,SSW,210,0.0,0.0,83,0.00,,,0.00,Wunderground v.1.15,2013-01-17 10:49:00,
2013-01-17 03:59:00,13.0,8.8,30.46,SSW,210,0.0,0.0,83,0.00,,,0.00,Wunderground v.1.15,2013-01-17 10:59:00,
2013-01-17 04:09:00,13.4,9.7,30.46,SSW,210,0.0,0.0,85,0.00,,,0.00,Wunderground v.1.15,2013-01-17 11:09:00,
2013-01-17 04:19:00,14.0,10.1,30.46,SSW,210,0.0,0.0,84,0.00,,,0.00,Wunderground v.1.15,2013-01-17 11:19:00,
2013-01-17 04:28:00,14.3,10.1,30.46,SSW,210,0.0,0.0,83,0.00,,,0.00,Wunderground v.1.15,2013-01-17 11:28:00,
2013-01-17 04:38:00,13.9,9.4,30.46,SSW,210,0.0,0.0,82,0.00,,,0.00,Wunderground v.1.15,2013-01-17 11:38:00,
2013-01-17 04:49:00,13.2,8.5,30.46,SSW,210,0.0,0.0,81,0.00,,,0.00,Wunderground v.1.15,2013-01-17 11:49:00,
2013-01-17 04:59:00,12.2,7.2,30.47,SSW,210,0.0,0.0,80,0.00,,,0.00,Wunderground v.1.15,2013-01-17 11:59:00,
2013-01-17 05:09:00,11.2,6.5,30.47,SSW,210,0.0,0.0,81,0.00,,,0.00,Wunderground v.1.15,2013-01-17 12:09:00,
2013-01-17 05:19:00,10.2,5.8,30.47,SSW,210,0.0,0.0,82,0.00,,,0.00,Wunderground v.1.15,2013-01-17 12:19:00,
2013-01-17 05:29:00,9.9,5.8,30.48,South,184,1.0,1.0,83,0.00,,,0.00,Wunderground v.1.15,2013-01-17 12:29:00,
2013-01-17 05:39:00,9.9,6.0,30.48,South,176,0.0,0.0,84,0.00,,,0.00,Wunderground v.1.15,2013-01-17 12:39:00,
2013-01-17 05:49:00,10.1,6.5,30.49,South,176,0.0,0.0,85,0.00,,,0.00,Wunderground v.1.15,2013-01-17 12:49:00,
2013-01-17 05:59:00,11.0,7.6,30.48,South,176,0.0,0.0,86,0.00,,,0.00,Wunderground v.1.15,2013-01-17 12:59:00,
2013-01-17 06:09:00,12.8,9.9,30.48,South,177,0.0,0.0,88,0.00,,,0.00,Wunderground v.1.15,2013-01-17 13:09:00,
2013-01-17 06:19:00,14.0,11.1,30.49,South,176,0.0,0.0,88,0.00,,,0.00,Wunderground v.1.15,2013-01-17 13:19:00,
2013-01-17 06:28:00,14.7,11.3,30.49,South,176,0.0,0.0,86,0.00,,,0.00,Wunderground v.1.15,2013-01-17 13:28:00,
2013-01-17 06:39:00,14.5,10.8,30.49,South,176,0.0,0.0,85,0.00,,,0.00,Wunderground v.1.15,2013-01-17 13:39:00,
2013-01-17 06:49:00,14.3,10.4,30.49,South,176,0.0,0.0,84,0.00,,,0.00,Wunderground v.1.15,2013-01-17 13:49:00,
2013-01-17 06:59:00,14.3,10.4,30.49,South,176,0.0,0.0,84,0.00,,,0.00,Wunderground v.1.15,2013-01-17 13:59:00,
2013-01-17 07:09:00,14.9,11.2,30.50,South,177,0.0,0.0,85,0.00,,,0.00,Wunderground v.1.15,2013-01-17 14:09:00,
2013-01-17 07:19:00,14.9,10.7,30.50,South,176,0.0,0.0,83,0.00,,,0.00,Wunderground v.1.15,2013-01-17 14:19:00,
2013-01-17 07:29:00,13.5,8.5,30.51,South,176,0.0,0.0,80,0.00,,,0.00,Wunderground v.1.15,2013-01-17 14:29:00,
2013-01-17 07:39:00,12.4,7.7,30.51,South,176,0.0,0.0,81,0.00,,,0.00,Wunderground v.1.15,2013-01-17 14:39:00,
2013-01-17 07:49:00,12.1,7.9,30.52,South,176,0.0,0.0,83,0.00,,,0.00,Wunderground v.1.15,2013-01-17 14:49:00,
2013-01-17 07:58:00,12.9,9.2,30.53,South,176,0.0,0.0,85,0.00,,,0.00,Wunderground v.1.15,2013-01-17 14:58:00,
2013-01-17 08:08:00,14.3,10.6,30.54,South,176,0.0,0.0,85,0.00,,,0.00,Wunderground v.1.15,2013-01-17 15:08:00,
2013-01-17 08:18:00,14.8,10.6,30.55,South,176,0.0,0.0,83,0.00,,,0.00,Wunderground v.1.15,2013-01-17 15:18:00,
2013-01-17 08:28:00,15.4,10.9,30.55,South,176,0.0,0.0,82,0.00,,,0.00,Wunderground v.1.15,2013-01-17 15:28:00,
2013-01-17 08:39:00,15.5,9.9,30.56,South,176,0.0,0.0,78,0.00,,,0.00,Wunderground v.1.15,2013-01-17 15:39:00,
2013-01-17 08:49:00,15.9,10.3,30.56,South,176,0.0,0.0,78,0.00,,,0.00,Wunderground v.1.15,2013-01-17 15:49:00,
2013-01-17 08:59:00,17.6,12.5,30.56,South,176,0.0,0.0,80,0.00,,,0.00,Wunderground v.1.15,2013-01-17 15:59:00,
2013-01-17 09:09:00,21.7,13.4,30.56,South,176,0.0,0.0,70,0.00,,,0.00,Wunderground v.1.15,2013-01-17 16:09:00,
2013-01-17 09:19:00,24.9,15.1,30.57,South,176,0.0,0.0,66,0.00,,,0.00,Wunderground v.1.15,2013-01-17 16:19:00,
2013-01-17 09:29:00,24.1,12.6,30.57,ESE,118,0.0,0.0,61,0.00,,,0.00,Wunderground v.1.15,2013-01-17 16:29:00,
2013-01-17 09:39:00,23.0,12.3,30.57,ESE,118,0.0,0.0,63,0.00,,,0.00,Wunderground v.1.15,2013-01-17 16:39:00,
2013-01-17 09:49:00,24.3,13.1,30.57,ESE,118,0.0,0.0,62,0.00,,,0.00,Wunderground v.1.15,2013-01-17 16:49:00,
2013-01-17 09:59:00,26.2,12.6,30.57,SSE,165,1.0,1.0,56,0.00,,,0.00,Wunderground v.1.15,2013-01-17 16:59:00,
2013-01-17 10:09:00,26.7,12.7,30.57,South,182,0.0,0.0,55,0.00,,,0.00,Wunderground v.1.15,2013-01-17 17:09:00,
2013-01-17 10:19:00,27.6,13.5,30.56,SSE,148,0.0,0.0,55,0.00,,,0.00,Wunderground v.1.15,2013-01-17 17:19:00,
2013-01-17 10:29:00,28.7,13.7,30.55,SSE,156,1.0,1.0,53,0.00,,,0.00,Wunderground v.1.15,2013-01-17 17:29:00,
2013-01-17 10:39:00,29.6,14.1,30.55,SE,142,0.0,0.0,52,0.00,,,0.00,Wunderground v.1.15,2013-01-17 17:39:00,
2013-01-17 10:48:00,31.2,14.7,30.55,SE,145,0.0,0.0,50,0.00,,,0.00,Wunderground v.1.15,2013-01-17 17:48:00,
2013-01-17 10:59:00,33.3,15.2,30.54,SE,145,0.0,0.0,47,0.00,,,0.00,Wunderground v.1.15,2013-01-17 17:59:00,
2013-01-17 11:08:00,32.0,14.5,30.53,ESE,109,0.0,0.0,48,0.00,,,0.00,Wunderground v.1.15,2013-01-17 18:08:00,
2013-01-17 11:18:00,30.3,13.4,30.53,ENE,69,0.0,0.0,49,0.00,,,0.00,Wunderground v.1.15,2013-01-17 18:18:00,
2013-01-17 11:29:00,30.2,13.3,30.52,ESE,110,1.0,1.0,49,0.00,,,0.00,Wunderground v.1.15,2013-01-17 18:29:00,
2013-01-17 11:39:00,30.8,14.3,30.51,SE,129,0.0,0.0,50,0.00,,,0.00,Wunderground v.1.15,2013-01-17 18:39:00,
2013-01-17 11:49:00,31.2,14.2,30.50,ESE,117,0.0,0.0,49,0.00,,,0.00,Wunderground v.1.15,2013-01-17 18:49:00,
2013-01-17 11:59:00,31.0,13.6,30.50,East,98,0.0,0.0,48,0.00,,,0.00,Wunderground v.1.15,2013-01-17 18:59:00,
2013-01-17 12:09:00,31.5,14.0,30.49,NNE,32,0.0,2.0,48,0.00,,,0.00,Wunderground v.1.15,2013-01-17 19:09:00,
2013-01-17 12:19:00,30.7,13.8,30.49,NNE,30,0.0,0.0,49,0.00,,,0.00,Wunderground v.1.15,2013-01-17 19:19:00,
2013-01-17 12:29:00,31.2,13.8,30.49,NNE,32,0.0,0.0,48,0.00,,,0.00,Wunderground v.1.15,2013-01-17 19:29:00,
2013-01-17 12:39:00,31.3,13.4,30.48,NE,34,0.0,0.0,47,0.00,,,0.00,Wunderground v.1.15,2013-01-17 19:39:00,
2013-01-17 12:49:00,31.5,13.1,30.47,NE,36,0.0,0.0,46,0.00,,,0.00,Wunderground v.1.15,2013-01-17 19:49:00,
2013-01-17 12:59:00,31.3,13.4,30.47,NE,36,0.0,0.0,47,0.00,,,0.00,Wunderground v.1.15,2013-01-17 19:59:00,
2013-01-17 13:09:00,30.6,13.2,30.47,NE,36,0.0,0.0,48,0.00,,,0.00,Wunderground v.1.15,2013-01-17 20:09:00,
2013-01-17 13:18:00,30.4,13.0,30.47,NE,37,0.0,0.0,48,0.00,,,0.00,Wunderground v.1.15,2013-01-17 20:18:00,
2013-01-17 13:29:00,29.2,13.3,30.46,NE,37,0.0,0.0,51,0.00,,,0.00,Wunderground v.1.15,2013-01-17 20:29:00,
2013-01-17 13:39:00,29.9,13.9,30.46,NE,36,0.0,0.0,51,0.00,,,0.00,Wunderground v.1.15,2013-01-17 20:39:00,
2013-01-17 13:49:00,30.7,14.2,30.46,NE,38,0.0,0.0,50,0.00,,,0.00,Wunderground v.1.15,2013-01-17 20:49:00,
2013-01-17 13:59:00,30.8,14.8,30.45,NE,38,0.0,0.0,51,0.00,,,0.00,Wunderground v.1.15,2013-01-17 20:59:00,
2013-01-17 14:09:00,31.5,15.0,30.45,NE,37,0.0,0.0,50,0.00,,,0.00,Wunderground v.1.15,2013-01-17 21:09:00,
2013-01-17 14:19:00,31.6,14.6,30.45,NE,38,0.0,0.0,49,0.00,,,0.00,Wunderground v.1.15,2013-01-17 21:19:00,
2013-01-17 14:29:00,32.6,15.1,30.45,NE,38,0.0,0.0,48,0.00,,,0.00,Wunderground v.1.15,2013-01-17 21:29:00,
2013-01-17 14:39:00,33.9,15.8,30.45,NE,38,0.0,0.0,47,0.00,,,0.00,Wunderground v.1.15,2013-01-17 21:39:00,
2013-01-17 14:49:00,34.1,15.5,30.45,NE,36,0.0,0.0,46,0.00,,,0.00,Wunderground v.1.15,2013-01-17 21:49:00,
2013-01-17 14:59:00,33.6,15.5,30.45,NE,36,0.0,0.0,47,0.00,,,0.00,Wunderground v.1.15,2013-01-17 21:59:00,
2013-01-17 15:09:00,32.2,15.2,30.45,NE,36,0.0,0.0,49,0.00,,,0.00,Wunderground v.1.15,2013-01-17 22:09:00,
2013-01-17 15:19:00,32.0,14.5,30.45,NE,36,0.0,0.0,48,0.00,,,0.00,Wunderground v.1.15,2013-01-17 22:19:00,
2013-01-17 15:29:00,32.1,13.6,30.44,NE,36,0.0,0.0,46,0.00,,,0.00,Wunderground v.1.15,2013-01-17 22:29:00,
2013-01-17 15:39:00,31.9,13.4,30.44,NE,36,0.0,0.0,46,0.00,,,0.00,Wunderground v.1.15,2013-01-17 22:39:00,
2013-01-17 15:49:00,31.7,13.7,30.44,NE,37,0.0,0.0,47,0.00,,,0.00,Wunderground v.1.15,2013-01-17 22:49:00,
2013-01-17 15:59:00,31.5,13.6,30.44,NE,37,0.0,0.0,47,0.00,,,0.00,Wunderground v.1.15,2013-01-17 22:59:00,
2013-01-17 16:09:00,31.2,13.8,30.44,NE,36,0.0,2.0,48,0.00,,,0.00,Wunderground v.1.15,2013-01-17 23:09:00,
2013-01-17 16:19:00,30.7,13.3,30.44,NE,36,0.0,2.0,48,0.00,,,0.00,Wunderground v.1.15,2013-01-17 23:19:00,
2013-01-17 16:29:00,30.2,13.3,30.44,NE,36,0.0,2.0,49,0.00,,,0.00,Wunderground v.1.15,2013-01-17 23:29:00,
2013-01-17 16:39:00,29.6,13.2,30.44,NE,37,0.0,2.0,50,0.00,,,0.00,Wunderground v.1.15,2013-01-17 23:39:00,
2013-01-17 16:49:00,29.6,14.5,30.44,South,182,0.0,2.0,53,0.00,,,0.00,Wunderground v.1.15,2013-01-17 23:49:00,
2013-01-17 16:59:00,30.8,15.2,30.45,South,175,0.0,2.0,52,0.00,,,0.00,Wunderground v.1.15,2013-01-17 23:59:00,
2013-01-17 17:09:00,31.0,15.0,30.45,SSE,165,0.0,0.0,51,0.00,,,0.00,Wunderground v.1.15,2013-01-18 00:09:00,
2013-01-17 17:19:00,30.7,15.1,30.45,SSE,166,0.0,0.0,52,0.00,,,0.00,Wunderground v.1.15,2013-01-18 00:19:00,
2013-01-17 17:29:00,30.5,14.9,30.46,SSE,166,0.0,0.0,52,0.00,,,0.00,Wunderground v.1.15,2013-01-18 00:29:00,
2013-01-17 17:38:00,29.7,14.6,30.46,South,169,0.0,0.0,53,0.00,,,0.00,Wunderground v.1.15,2013-01-18 00:38:00,
2013-01-17 17:49:00,27.8,14.1,30.46,SSW,206,0.0,0.0,56,0.00,,,0.00,Wunderground v.1.15,2013-01-18 00:49:00,
2013-01-17 17:59:00,27.6,14.3,30.46,SSW,206,0.0,0.0,57,0.00,,,0.00,Wunderground v.1.15,2013-01-18 00:59:00,
2013-01-17 18:09:00,28.3,14.6,30.46,South,183,0.0,0.0,56,0.00,,,0.00,Wunderground v.1.15,2013-01-18 01:09:00,
2013-01-17 18:19:00,28.3,13.8,30.46,West,268,0.0,0.0,54,0.00,,,0.00,Wunderground v.1.15,2013-01-18 01:19:00,
2013-01-17 18:29:00,27.5,13.4,30.46,West,268,0.0,0.0,55,0.00,,,0.00,Wunderground v.1.15,2013-01-18 01:29:00,
2013-01-17 18:39:00,26.3,13.1,30.46,West,268,0.0,0.0,57,0.00,,,0.00,Wunderground v.1.15,2013-01-18 01:39:00,
2013-01-17 18:49:00,25.5,12.8,30.46,West,268,0.0,0.0,58,0.00,,,0.00,Wunderground v.1.15,2013-01-18 01:49:00,
2013-01-17 18:59:00,24.6,12.3,30.46,West,268,0.0,0.0,59,0.00,,,0.00,Wunderground v.1.15,2013-01-18 01:59:00,
2013-01-17 19:09:00,23.7,12.6,30.46,West,268,0.0,0.0,62,0.00,,,0.00,Wunderground v.1.15,2013-01-18 02:09:00,
2013-01-17 19:19:00,23.3,12.6,30.46,West,268,0.0,0.0,63,0.00,,,0.00,Wunderground v.1.15,2013-01-18 02:19:00,
2013-01-17 19:29:00,23.0,12.6,30.46,West,267,0.0,0.0,64,0.00,,,0.00,Wunderground v.1.15,2013-01-18 02:29:00,
2013-01-17 19:39:00,23.0,12.6,30.46,SSE,167,0.0,0.0,64,0.00,,,0.00,Wunderground v.1.15,2013-01-18 02:39:00,
2013-01-17 19:49:00,23.4,12.6,30.45,SSE,167,0.0,0.0,63,0.00,,,0.00,Wunderground v.1.15,2013-01-18 02:49:00,
2013-01-17 19:59:00,23.4,13.0,30.46,SSE,167,0.0,0.0,64,0.00,,,0.00,Wunderground v.1.15,2013-01-18 02:59:00,
2013-01-17 20:09:00,23.6,12.5,30.46,SSE,167,0.0,0.0,62,0.00,,,0.00,Wunderground v.1.15,2013-01-18 03:09:00,
2013-01-17 20:19:00,23.3,12.6,30.46,SSE,167,0.0,0.0,63,0.00,,,0.00,Wunderground v.1.15,2013-01-18 03:19:00,
2013-01-17 20:29:00,23.4,12.3,30.46,SSE,167,0.0,0.0,62,0.00,,,0.00,Wunderground v.1.15,2013-01-18 03:29:00,
2013-01-17 20:38:00,23.0,12.3,30.45,SSE,167,0.0,0.0,63,0.00,,,0.00,Wunderground v.1.15,2013-01-18 03:38:00,
2013-01-17 20:49:00,23.5,12.4,30.45,SSE,167,0.0,0.0,62,0.00,,,0.00,Wunderground v.1.15,2013-01-18 03:49:00,
2013-01-17 20:59:00,24.2,12.7,30.45,SSE,167,0.0,0.0,61,0.00,,,0.00,Wunderground v.1.15,2013-01-18 03:59:00,
2013-01-17 21:09:00,24.9,13.0,30.45,South,187,1.0,1.0,60,0.00,,,0.00,Wunderground v.1.15,2013-01-18 04:09:00,
2013-01-17 21:19:00,24.9,12.6,30.45,SSW,192,0.0,0.0,59,0.00,,,0.00,Wunderground v.1.15,2013-01-18 04:19:00,
2013-01-17 21:28:00,24.6,12.3,30.45,South,191,0.0,0.0,59,0.00,,,0.00,Wunderground v.1.15,2013-01-18 04:28:00,
2013-01-17 21:49:00,24.8,11.7,30.44,South,191,0.0,0.0,57,0.00,,,0.00,Wunderground v.1.15,2013-01-18 04:49:00,
2013-01-17 21:59:00,25.1,11.6,30.44,South,191,0.0,0.0,56,0.00,,,0.00,Wunderground v.1.15,2013-01-18 04:59:00,
2013-01-17 22:09:00,25.3,11.0,30.43,SW,236,0.0,0.0,54,0.00,,,0.00,Wunderground v.1.15,2013-01-18 05:09:00,
2013-01-17 22:19:00,25.3,11.0,30.43,WSW,244,1.0,1.0,54,0.00,,,0.00,Wunderground v.1.15,2013-01-18 05:19:00,
2013-01-17 22:29:00,24.7,10.4,30.43,WSW,244,0.0,0.0,54,0.00,,,0.00,Wunderground v.1.15,2013-01-18 05:29:00,
2013-01-17 22:38:00,24.0,10.2,30.43,SSW,209,1.0,1.0,55,0.00,,,0.00,Wunderground v.1.15,2013-01-18 05:38:00,
2013-01-17 22:49:00,23.5,9.7,30.43,WSW,257,0.0,0.0,55,0.00,,,0.00,Wunderground v.1.15,2013-01-18 05:49:00,
2013-01-17 22:59:00,22.6,9.6,30.42,West,276,0.0,1.0,57,0.00,,,0.00,Wunderground v.1.15,2013-01-18 05:59:00,
2013-01-17 23:09:00,21.9,9.0,30.42,WSW,252,1.0,1.0,57,0.00,,,0.00,Wunderground v.1.15,2013-01-18 06:09:00,
2013-01-17 23:19:00,23.2,9.0,30.42,WSW,238,2.0,2.0,54,0.00,,,0.00,Wunderground v.1.15,2013-01-18 06:19:00,
2013-01-17 23:28:00,23.9,9.2,30.41,WSW,250,2.0,2.0,53,0.00,,,0.00,Wunderground v.1.15,2013-01-18 06:28:00,
2013-01-17 23:38:00,23.8,8.3,30.41,WSW,242,1.0,1.0,51,0.00,,,0.00,Wunderground v.1.15,2013-01-18 06:38:00,
2013-01-17 23:49:00,23.8,8.3,30.41,WSW,246,1.0,2.0,51,0.00,,,0.00,Wunderground v.1.15,2013-01-18 06:49:00,
2013-01-17 23:59:00,23.0,8.0,30.40,WSW,257,0.0,0.0,52,0.00,,,0.00,Wunderground v.1.15,2013-01-18 06:59:00,